Terminal Aerodrome Forecast
Issued by NWS

Home | Current Version | Previous Version | Text Only | Print | Product List | Glossary Off
Versions: 1 2 3 4 5 6 7 8 9 10 11 12 13 14 15 16 17 18 19 20 21 22 23 24 25 26 27 28 29 30 31 32 33

000
FTUS43 KLOT 011600 AAB
TAFORD
TAF AMD
KORD 011602Z 0116/0218 20003KT 2SM BR OVC015
     FM011900 25007KT 5SM BR OVC015
     FM012100 25009KT P6SM BKN030 BKN120
     FM020300 30010G16KT P6SM SCT030
     FM020800 29009KT P6SM SKC
     FM021300 31005KT P6SM SKC=

USA.gov is the U.S. government's official web portal to all federal, state and local government web resources and services.